Blagovescensk, Russia

4:16 AM YAKT on October 24, 2014 (GMT +1000)
Ignatyevo | Change Station
CLOSE
Current Station
Airport
Location: Blagovescensk,
Elevation: 636 ft
Nearby Weather Stations

Elev 636 ft 50.43 °N, 127.41 °E | Updated 16 minutes ago

Clear
Clear
23 °F
Feels Like 23 °F
N
2
Wind Variable Wind from Variable

Today
High -- | Low -- °F
--% Chance of Precip.
Yesterday
High -- | Low -- °F
Precip. -- in
8:06 AM 6:21 PM
Waning Crescent, 0% visible
Pressure 29.86 in
Visibility -9999.0 miles
Clouds
Dew Point 21 °F
Humidity 93%
Rainfall 0.00 in
Snow Depth Not available.
UV Not available.
Pollen Not available.
Air Quality Not available.
Flu Activity Not available.
METAR UHBB 231800Z VRB01MPS CAVOK M05/M06 Q1011 NOSIG RMK QFE740/0987 36090060

More Conditions Fewer Conditions

Pressure 29.86 in
Visibility -9999.0 miles
Clouds
Dew Point 21 °F
Humidity 93%
Rainfall 0.00 in
Snow Depth Not available.
UV Not available.
Pollen Not available.
Air Quality Not available.
Flu Activity Not available.
METAR UHBB 231800Z VRB01MPS CAVOK M05/M06 Q1011 NOSIG RMK QFE740/0987 36090060

More Conditions Fewer Conditions

10-Day Weather Forecast

Almanac

Astronomy

Oct. 24, 2014 Rise Set
Actual Time 8:06 AM YAKT 6:21 PM YAKT
Civil Twilight 7:33 AM YAKT 6:55 PM YAKT
Nautical Twilight 6:55 AM YAKT 7:33 PM YAKT
Astronomical Twilight 6:17 AM YAKT 8:10 PM YAKT
Moon 8:10 AM YAKT (10/24) 6:35 PM YAKT (10/24)
Length of Visible Light 11h 21m
Length of Day
10h 14m
Tomorrow will be 3m 35s shorter.
Waning Crescent, 0% of the Moon is Illuminated
Oct 23
Waning Crescent
Oct 23
New
Oct 30
First Quarter
Nov 6
Full
Nov 14
Last Quarter

Yesterday's Extremes

Country Highs Country Lows

Community

WunderPhotos

Upload Photos

1,764,333 photos uploaded!

WunderBlogs® & News

Nearby

Snow Depth

Not available.

Earthquake Activity

City Distance Mag. Time & Date
No recent earthquake activity has been reported nearby.
Minimum magnitude displayed is 2.5.

Coastal Water Temperatures

Place Temperature
No Stations Reporting

Nearby Weather Stations